createdAt,value
2022-08-26T00:01:56.182Z,98588.25
2022-08-26T00:04:25.767Z,98599.31
2022-08-26T00:06:54.827Z,98602.09
2022-08-26T00:09:23.469Z,98586.06
2022-08-26T00:11:53.792Z,98598.78
2022-08-26T00:14:21.330Z,98590.97
2022-08-26T00:16:49.027Z,98588.38
2022-08-26T00:19:20.255Z,98601.13
2022-08-26T00:21:49.666Z,98609.72
2022-08-26T00:24:19.152Z,98587.31
2022-08-26T00:26:46.436Z,98581.00
2022-08-26T00:29:14.059Z,98603.38
2022-08-26T00:31:42.269Z,98592.06
2022-08-26T00:34:11.336Z,98595.50
2022-08-26T00:36:39.749Z,98583.50
2022-08-26T00:39:08.411Z,98597.66
2022-08-26T00:41:39.130Z,98592.84
2022-08-26T00:44:06.988Z,98580.41
2022-08-26T00:46:39.762Z,98605.41
2022-08-26T00:49:20.418Z,98600.81
2022-08-26T00:51:53.715Z,98606.09
2022-08-26T00:54:26.923Z,98583.88
2022-08-26T00:57:08.670Z,98591.47
2022-08-26T00:59:47.694Z,98589.19
2022-08-26T01:02:21.175Z,98575.41
2022-08-26T01:04:54.306Z,98595.06
2022-08-26T01:07:26.079Z,98582.34
2022-08-26T01:09:53.077Z,98608.75
2022-08-26T01:12:21.957Z,98606.41
2022-08-26T01:14:50.108Z,98591.34
2022-08-26T01:17:17.210Z,98611.53
2022-08-26T01:19:50.069Z,98620.75
2022-08-26T01:22:40.829Z,98599.22
2022-08-26T01:25:08.246Z,98586.75
2022-08-26T01:27:35.338Z,98606.84
2022-08-26T01:30:04.892Z,98605.59
2022-08-26T01:32:33.027Z,98595.03
2022-08-26T01:35:00.945Z,98607.75
2022-08-26T01:37:33.677Z,98593.53
2022-08-26T01:40:00.952Z,98607.06
2022-08-26T01:42:28.543Z,98593.38
2022-08-26T01:45:12.878Z,98600.03
2022-08-26T01:47:41.763Z,98581.66
2022-08-26T01:50:28.137Z,98603.91
2022-08-26T01:53:03.062Z,98589.53
2022-08-26T01:55:32.775Z,98611.72
2022-08-26T01:58:05.520Z,98593.38
2022-08-26T02:00:34.874Z,98601.66
2022-08-26T02:03:17.560Z,98597.69
2022-08-26T02:06:09.352Z,98607.34
2022-08-26T02:08:48.618Z,98608.19
2022-08-26T02:11:18.416Z,98599.47
2022-08-26T02:13:53.069Z,98601.00
2022-08-26T02:16:26.198Z,98610.53
2022-08-26T02:18:54.329Z,98619.81
2022-08-26T02:21:22.832Z,98615.63
2022-08-26T02:23:52.538Z,98601.25
2022-08-26T02:26:26.960Z,98608.44
2022-08-26T02:29:05.026Z,98610.09
2022-08-26T02:31:34.567Z,98607.06
2022-08-26T02:34:20.290Z,98610.09
2022-08-26T02:36:47.165Z,98607.22
2022-08-26T02:39:17.994Z,98596.44
2022-08-26T02:41:49.070Z,98610.09
2022-08-26T02:44:16.254Z,98612.72
2022-08-26T02:46:47.043Z,98597.97
2022-08-26T02:49:16.191Z,98602.28
2022-08-26T02:51:44.479Z,98589.69
2022-08-26T02:54:12.561Z,98598.25
2022-08-26T02:56:39.462Z,98606.69
2022-08-26T02:59:06.443Z,98590.81
2022-08-26T03:01:36.713Z,98602.97
2022-08-26T03:04:06.050Z,98615.41
2022-08-26T03:06:33.048Z,98603.25
2022-08-26T03:08:59.880Z,98603.00
2022-08-26T03:11:30.885Z,98608.22
2022-08-26T03:14:00.570Z,98601.31
2022-08-26T03:16:33.192Z,98604.47
2022-08-26T03:19:01.001Z,98602.72
2022-08-26T03:21:27.935Z,98598.56
2022-08-26T03:23:55.031Z,98592.75
2022-08-26T03:26:26.873Z,98600.38
2022-08-26T03:29:13.197Z,98581.41
2022-08-26T03:31:40.618Z,98578.50
2022-08-26T03:34:07.549Z,98578.34
2022-08-26T03:36:35.088Z,98580.28
2022-08-26T03:39:02.449Z,98601.34
2022-08-26T03:41:32.795Z,98582.75
2022-08-26T03:44:01.636Z,98588.34
2022-08-26T03:46:29.092Z,98580.28
2022-08-26T03:48:56.728Z,98590.53
2022-08-26T03:51:23.616Z,98591.63
2022-08-26T03:53:51.156Z,98595.09
2022-08-26T03:56:18.038Z,98563.16
2022-08-26T03:58:45.056Z,98608.78
2022-08-26T04:01:16.242Z,98611.53
2022-08-26T04:04:00.340Z,98598.56
2022-08-26T04:06:36.496Z,98595.50
2022-08-26T04:09:09.069Z,98596.91
2022-08-26T04:11:38.237Z,98616.25
2022-08-26T04:14:13.363Z,98609.47
2022-08-26T04:16:42.462Z,98601.59
2022-08-26T04:19:12.706Z,98608.22
2022-08-26T04:21:41.192Z,98598.53
2022-08-26T04:24:11.912Z,98607.97
2022-08-26T04:26:42.706Z,98578.91
2022-08-26T04:29:24.480Z,98610.16
2022-08-26T04:31:55.520Z,98600.88
2022-08-26T04:34:28.829Z,98592.03
2022-08-26T04:36:57.622Z,98595.38
2022-08-26T04:39:24.488Z,98567.72
2022-08-26T04:41:55.041Z,98591.63
2022-08-26T04:44:23.033Z,98603.78
2022-08-26T04:46:50.984Z,98580.56
2022-08-26T04:49:18.311Z,98576.44
2022-08-26T04:51:45.899Z,98603.38
2022-08-26T04:54:14.089Z,98607.22
2022-08-26T04:56:47.185Z,98602.44
2022-08-26T04:59:18.221Z,98610.31
2022-08-26T05:01:49.423Z,98618.84
2022-08-26T05:04:18.756Z,98613.34
2022-08-26T05:06:48.182Z,98608.50
2022-08-26T05:09:15.890Z,98605.31
2022-08-26T05:11:42.842Z,98601.03
2022-08-26T05:14:09.988Z,98592.03
2022-08-26T05:16:37.621Z,98584.44
2022-08-26T05:19:08.488Z,98608.75
2022-08-26T05:21:38.601Z,98618.19
2022-08-26T05:24:06.399Z,98602.72
2022-08-26T05:26:33.887Z,98617.22
2022-08-26T05:29:01.425Z,98604.78
2022-08-26T05:31:33.189Z,98626.19
2022-08-26T05:34:03.529Z,98624.13
2022-08-26T05:36:34.371Z,98603.13
2022-08-26T05:39:04.637Z,98624.00
2022-08-26T05:41:36.426Z,98624.69
2022-08-26T05:44:08.589Z,98623.84
2022-08-26T05:46:37.257Z,98612.38
2022-08-26T05:49:06.007Z,98630.34
2022-08-26T05:51:40.668Z,98630.22
2022-08-26T05:54:07.482Z,98611.69
2022-08-26T05:56:38.928Z,98612.78
2022-08-26T05:59:06.780Z,98627.31
2022-08-26T06:01:42.795Z,98641.47
2022-08-26T06:04:10.380Z,98630.13
2022-08-26T06:06:41.273Z,98640.06
2022-08-26T06:09:11.251Z,98644.50
2022-08-26T06:11:39.640Z,98649.47
2022-08-26T06:14:07.843Z,98651.13
2022-08-26T06:16:40.983Z,98650.31
2022-08-26T06:19:11.503Z,98650.84
2022-08-26T06:21:41.575Z,98652.38
2022-08-26T06:24:32.586Z,98644.19
2022-08-26T06:27:04.674Z,98643.09
2022-08-26T06:29:34.137Z,98632.03
2022-08-26T06:32:02.658Z,98623.47
2022-08-26T06:34:30.670Z,98643.09
2022-08-26T06:37:02.200Z,98630.09
2022-08-26T06:39:30.904Z,98652.09
2022-08-26T06:41:59.275Z,98636.44
2022-08-26T06:44:27.146Z,98646.94
2022-08-26T06:46:54.261Z,98652.47
2022-08-26T06:49:26.720Z,98642.78
2022-08-26T06:51:58.210Z,98647.63
2022-08-26T06:54:26.429Z,98636.41
2022-08-26T06:56:53.696Z,98640.41
2022-08-26T06:59:21.724Z,98620.91
2022-08-26T07:01:49.783Z,98647.31
2022-08-26T07:04:21.758Z,98635.25
2022-08-26T07:06:52.929Z,98652.94
2022-08-26T07:09:26.066Z,98654.59
2022-08-26T07:11:55.389Z,98658.75
2022-08-26T07:14:22.870Z,98652.41
2022-08-26T07:16:51.024Z,98644.63
2022-08-26T07:19:30.339Z,98654.44
2022-08-26T07:22:00.070Z,98630.75
2022-08-26T07:24:28.593Z,98656.91
2022-08-26T07:27:06.277Z,98622.59
2022-08-26T07:29:34.498Z,98652.44
2022-08-26T07:32:02.027Z,98659.72
2022-08-26T07:34:28.840Z,98662.75
2022-08-26T07:36:56.982Z,98651.13
2022-08-26T07:39:25.095Z,98647.50
2022-08-26T07:41:52.823Z,98661.31
2022-08-26T07:44:19.787Z,98654.59
2022-08-26T07:46:52.403Z,98646.28
2022-08-26T07:49:25.175Z,98633.81
2022-08-26T07:51:52.920Z,98655.38
2022-08-26T07:54:20.104Z,98659.91
2022-08-26T07:56:51.694Z,98646.41
2022-08-26T07:59:19.707Z,98645.81
2022-08-26T08:01:48.259Z,98654.84
2022-08-26T08:04:17.430Z,98646.50
2022-08-26T08:06:46.155Z,98652.31
2022-08-26T08:09:14.942Z,98651.69
2022-08-26T08:11:44.629Z,98652.06
2022-08-26T08:14:12.147Z,98632.78
2022-08-26T08:16:46.105Z,98635.47
2022-08-26T08:19:15.320Z,98584.03
2022-08-26T08:21:43.608Z,98631.31
2022-08-26T08:24:11.486Z,98645.47
2022-08-26T08:26:38.851Z,98640.19
2022-08-26T08:29:06.246Z,98627.81
2022-08-26T08:34:21.667Z,98638.50
2022-08-26T08:36:50.284Z,98640.78
2022-08-26T08:39:20.434Z,98633.19
2022-08-26T08:42:05.919Z,98629.03
2022-08-26T08:44:33.938Z,98623.13
2022-08-26T08:47:35.068Z,98627.59
2022-08-26T08:50:26.287Z,98626.44
2022-08-26T08:53:18.133Z,98624.16
2022-08-26T08:56:06.859Z,98617.41
2022-08-26T08:59:07.713Z,98618.72
2022-08-26T09:02:18.502Z,98615.72
2022-08-26T09:05:00.789Z,98601.34
2022-08-26T09:07:50.984Z,98605.84
2022-08-26T09:10:40.718Z,98603.53
2022-08-26T09:13:16.900Z,98585.66
2022-08-26T09:16:03.250Z,98603.53
2022-08-26T09:18:51.648Z,98606.72
2022-08-26T09:21:23.306Z,98595.03
2022-08-26T09:23:50.941Z,98606.59
2022-08-26T09:26:29.192Z,98603.97
2022-08-26T09:29:01.006Z,98600.31
2022-08-26T09:31:36.658Z,98595.69
2022-08-26T09:34:17.423Z,98593.53
2022-08-26T09:36:53.645Z,98567.28
2022-08-26T09:39:39.539Z,98570.22
2022-08-26T09:42:23.630Z,98585.59
2022-08-26T09:45:10.313Z,98587.03
2022-08-26T09:47:52.632Z,98574.22
2022-08-26T09:51:02.483Z,98570.41
2022-08-26T09:53:37.545Z,98553.50
2022-08-26T09:56:24.011Z,98549.78
2022-08-26T09:58:53.161Z,98517.50
2022-08-26T10:01:53.154Z,98537.13
2022-08-26T10:04:26.731Z,98539.06
2022-08-26T10:07:07.254Z,98526.38
2022-08-26T10:09:40.898Z,98505.66
2022-08-26T10:12:15.512Z,98519.22
2022-08-26T10:14:50.341Z,98530.41
2022-08-26T10:17:43.568Z,98526.88
2022-08-26T10:20:23.160Z,98521.00
2022-08-26T10:23:14.032Z,98511.47
2022-08-26T10:25:53.919Z,98506.63
2022-08-26T10:28:53.719Z,98501.31
2022-08-26T10:31:27.659Z,98499.97
2022-08-26T10:33:58.852Z,98494.50
2022-08-26T10:37:14.304Z,98483.03
2022-08-26T10:39:57.223Z,98498.78
2022-08-26T10:42:54.482Z,98479.16
2022-08-26T10:45:27.355Z,98490.69
2022-08-26T10:48:03.402Z,98478.28
2022-08-26T10:50:43.669Z,98489.19
2022-08-26T10:53:25.032Z,98481.03
2022-08-26T10:56:29.901Z,98482.47
2022-08-26T10:59:10.398Z,98470.22
2022-08-26T11:01:52.441Z,98473.59
2022-08-26T11:04:38.160Z,98462.75
2022-08-26T11:07:39.208Z,98462.63
2022-08-26T11:10:43.230Z,98446.25
2022-08-26T11:13:11.923Z,98448.72
2022-08-26T11:15:38.586Z,98447.69
2022-08-26T11:18:11.234Z,98447.53
2022-08-26T11:20:46.051Z,98446.84
2022-08-26T11:23:16.488Z,98453.63
2022-08-26T11:26:16.436Z,98448.06
2022-08-26T11:29:01.672Z,98446.03
2022-08-26T11:31:30.500Z,98450.31
2022-08-26T11:34:13.401Z,98439.41
2022-08-26T11:36:45.403Z,98452.56
2022-08-26T11:39:54.017Z,98440.53
2022-08-26T11:42:46.545Z,98458.66
2022-08-26T11:45:34.704Z,98446.88
2022-08-26T11:48:30.505Z,98459.56
2022-08-26T11:51:21.666Z,98451.41
2022-08-26T11:53:49.174Z,98454.69
2022-08-26T11:56:31.769Z,98478.41
2022-08-26T11:59:04.196Z,98465.63
2022-08-26T12:01:38.987Z,98479.28
2022-08-26T12:04:09.136Z,98454.38
2022-08-26T12:06:45.764Z,98461.59
2022-08-26T12:09:29.618Z,98456.22
2022-08-26T12:12:16.894Z,98457.81
2022-08-26T12:14:44.778Z,98463.13
2022-08-26T12:17:18.625Z,98466.78
2022-08-26T12:19:46.194Z,98454.56
2022-08-26T12:22:30.575Z,98465.97
2022-08-26T12:25:02.708Z,98466.63
2022-08-26T12:27:31.892Z,98461.72
2022-08-26T12:30:15.722Z,98461.97
2022-08-26T12:32:52.843Z,98451.09
2022-08-26T12:35:24.670Z,98456.69
2022-08-26T12:37:54.009Z,98446.91
2022-08-26T12:40:44.618Z,98436.69
2022-08-26T12:43:17.092Z,98436.75
2022-08-26T12:45:56.924Z,98430.63
2022-08-26T12:48:32.385Z,98429.91
2022-08-26T12:51:00.361Z,98424.16
2022-08-26T12:53:31.194Z,98415.75
2022-08-26T12:56:05.230Z,98428.75
2022-08-26T12:58:35.551Z,98422.63
2022-08-26T13:01:06.338Z,98417.50
2022-08-26T13:03:40.419Z,98415.47
2022-08-26T13:06:22.313Z,98412.03
2022-08-26T13:09:21.471Z,98403.41
2022-08-26T13:11:48.313Z,98406.72
2022-08-26T13:14:23.768Z,98403.09
2022-08-26T13:16:51.405Z,98399.41
2022-08-26T13:19:29.508Z,98380.94
2022-08-26T13:21:59.628Z,98380.56
2022-08-26T13:24:34.359Z,98379.72
2022-08-26T13:27:02.819Z,98359.81
2022-08-26T13:29:29.779Z,98368.22
2022-08-26T13:31:58.944Z,98372.97
2022-08-26T13:34:26.098Z,98352.44
2022-08-26T13:36:55.225Z,98366.19
2022-08-26T13:39:23.543Z,98371.72
2022-08-26T13:41:51.469Z,98353.69
2022-08-26T13:44:18.886Z,98381.56
2022-08-26T13:49:18.024Z,98364.97
2022-08-26T13:51:44.937Z,98366.19
2022-08-26T13:54:11.880Z,98364.16
2022-08-26T13:56:38.716Z,98371.53
2022-08-26T13:59:06.659Z,98369.06
2022-08-26T14:01:34.881Z,98364.94
2022-08-26T14:04:02.945Z,98353.19
2022-08-26T14:06:29.998Z,98351.16
2022-08-26T14:08:57.174Z,98350.31
2022-08-26T14:11:24.869Z,98346.44
2022-08-26T14:13:51.724Z,98353.00
2022-08-26T14:16:31.522Z,98345.84
2022-08-26T14:19:01.261Z,98338.63
2022-08-26T14:21:34.837Z,98345.97
2022-08-26T14:24:01.813Z,98323.81
2022-08-26T14:26:29.958Z,98353.94
2022-08-26T14:29:02.471Z,98354.94
2022-08-26T14:31:31.700Z,98349.59
2022-08-26T14:34:03.104Z,98356.31
2022-08-26T14:36:31.869Z,98369.38
2022-08-26T14:39:11.585Z,98353.13
2022-08-26T14:41:54.337Z,98357.63
2022-08-26T14:44:28.513Z,98373.41
2022-08-26T14:46:55.690Z,98375.84
2022-08-26T14:49:27.133Z,98386.44
2022-08-26T14:51:55.126Z,98358.72
2022-08-26T14:54:21.929Z,98367.75
2022-08-26T14:57:03.771Z,98362.41
2022-08-26T14:59:37.498Z,98352.97
2022-08-26T15:02:06.733Z,98352.53
2022-08-26T15:04:34.301Z,98348.78
2022-08-26T15:07:01.589Z,98328.66
2022-08-26T15:09:30.828Z,98350.59
2022-08-26T15:11:58.162Z,98324.25
2022-08-26T15:14:26.067Z,98363.63
2022-08-26T15:16:56.970Z,98355.25
2022-08-26T15:19:26.148Z,98366.88
2022-08-26T15:21:53.290Z,98368.25
2022-08-26T15:24:23.285Z,98358.19
2022-08-26T15:26:50.381Z,98368.19
2022-08-26T15:29:17.593Z,98372.75
2022-08-26T15:31:44.482Z,98376.78
2022-08-26T15:34:16.323Z,98371.47
2022-08-26T15:36:45.824Z,98372.16
2022-08-26T15:39:14.295Z,98375.03
2022-08-26T15:41:41.148Z,98369.56
2022-08-26T15:44:10.571Z,98374.13
2022-08-26T15:46:38.416Z,98358.56
2022-08-26T15:49:06.341Z,98356.44
2022-08-26T15:51:45.868Z,98365.44
2022-08-26T15:54:14.120Z,98357.16
2022-08-26T15:56:40.972Z,98353.59
2022-08-26T15:59:11.443Z,98347.72
2022-08-26T16:01:39.177Z,98331.53
2022-08-26T16:04:07.032Z,98364.84
2022-08-26T16:06:37.071Z,98363.53
2022-08-26T16:09:06.128Z,98357.06
2022-08-26T16:11:34.499Z,98372.63
2022-08-26T16:14:01.844Z,98388.72
2022-08-26T16:16:28.725Z,98405.03
2022-08-26T16:18:55.639Z,98415.38
2022-08-26T16:21:28.560Z,98430.28
2022-08-26T16:23:56.501Z,98437.28
2022-08-26T16:26:32.350Z,98434.41
2022-08-26T16:29:05.546Z,98451.66
2022-08-26T16:31:32.570Z,98462.41
2022-08-26T16:33:59.441Z,98444.88
2022-08-26T16:36:26.296Z,98466.66
2022-08-26T16:38:56.110Z,98447.47
2022-08-26T16:41:25.450Z,98485.25
2022-08-26T16:43:53.451Z,98483.91
2022-08-26T16:46:23.593Z,98481.31
2022-08-26T16:48:50.594Z,98473.53
2022-08-26T16:51:22.875Z,98473.84
2022-08-26T16:53:51.546Z,98486.63
2022-08-26T16:56:33.382Z,98486.38
2022-08-26T16:59:03.111Z,98468.44
2022-08-26T17:01:30.042Z,98481.50
2022-08-26T17:03:57.103Z,98472.31
2022-08-26T17:06:24.019Z,98473.34
2022-08-26T17:08:50.925Z,98454.84
2022-08-26T17:11:17.780Z,98454.16
2022-08-26T17:13:44.617Z,98467.25
2022-08-26T17:16:13.178Z,98474.69
2022-08-26T17:18:40.114Z,98458.50
2022-08-26T17:21:12.019Z,98484.97
2022-08-26T17:23:40.956Z,98478.03
2022-08-26T17:26:08.331Z,98457.84
2022-08-26T17:28:35.778Z,98490.56
2022-08-26T17:31:03.072Z,98460.31
2022-08-26T17:33:30.257Z,98481.63
2022-08-26T17:35:57.546Z,98448.28
2022-08-26T17:38:24.907Z,98478.66
2022-08-26T17:40:52.203Z,98483.31
2022-08-26T17:43:19.308Z,98482.63
2022-08-26T17:45:46.611Z,98487.75
2022-08-26T17:48:14.023Z,98477.31
2022-08-26T17:50:43.024Z,98488.91
2022-08-26T17:53:18.887Z,98478.34
2022-08-26T17:55:47.985Z,98482.63
2022-08-26T17:58:17.163Z,98481.28
2022-08-26T18:00:50.961Z,98479.63
2022-08-26T18:03:19.081Z,98483.88
2022-08-26T18:05:52.069Z,98479.56
2022-08-26T18:08:20.281Z,98488.78
2022-08-26T18:10:47.808Z,98484.94
2022-08-26T18:13:15.292Z,98517.81
2022-08-26T18:15:46.738Z,98543.50
2022-08-26T18:18:14.792Z,98540.50
2022-08-26T18:20:44.146Z,98537.84
2022-08-26T18:23:12.822Z,98524.72
2022-08-26T18:25:42.207Z,98525.75
2022-08-26T18:28:09.898Z,98537.34
2022-08-26T18:30:37.007Z,98541.28
2022-08-26T18:33:04.073Z,98550.81
2022-08-26T18:35:30.924Z,98580.38
2022-08-26T18:37:58.442Z,98583.91
2022-08-26T18:40:40.513Z,98628.38
2022-08-26T18:43:07.696Z,98619.59
2022-08-26T18:45:34.968Z,98607.19
2022-08-26T18:48:03.733Z,98617.91
2022-08-26T18:50:30.845Z,98655.22
2022-08-26T18:52:57.648Z,98636.38
2022-08-26T18:55:24.761Z,98630.59
2022-08-26T18:57:51.665Z,98652.41
2022-08-26T19:00:18.518Z,98628.91
2022-08-26T19:02:52.149Z,98635.03
2022-08-26T19:05:22.570Z,98619.34
2022-08-26T19:07:49.469Z,98635.22
2022-08-26T19:10:16.353Z,98623.19
2022-08-26T19:12:43.885Z,98633.41
2022-08-26T19:15:11.511Z,98618.13
2022-08-26T19:17:38.358Z,98607.38
2022-08-26T19:20:06.370Z,98600.16
2022-08-26T19:22:33.368Z,98611.69
2022-08-26T19:25:01.238Z,98612.91
2022-08-26T19:27:28.167Z,98627.59
2022-08-26T19:29:57.248Z,98627.75
2022-08-26T19:32:25.230Z,98622.84
2022-08-26T19:34:52.908Z,98631.44
2022-08-26T19:37:20.874Z,98633.06
2022-08-26T19:39:48.038Z,98630.06
2022-08-26T19:42:14.851Z,98625.72
2022-08-26T19:45:00.038Z,98630.75
2022-08-26T19:47:26.957Z,98628.88
2022-08-26T19:49:55.464Z,98642.81
2022-08-26T19:52:23.915Z,98640.63
2022-08-26T19:54:57.208Z,98637.53
2022-08-26T19:57:24.209Z,98632.25
2022-08-26T19:59:50.992Z,98605.22
2022-08-26T20:02:18.082Z,98651.56
2022-08-26T20:04:45.727Z,98618.25
2022-08-26T20:07:18.153Z,98630.09
2022-08-26T20:09:47.416Z,98641.69
2022-08-26T20:12:15.443Z,98620.66
2022-08-26T20:14:42.801Z,98646.13
2022-08-26T20:17:09.848Z,98651.53
2022-08-26T20:19:55.648Z,98626.28
2022-08-26T20:22:22.979Z,98644.53
2022-08-26T20:24:49.890Z,98617.69
2022-08-26T20:27:16.840Z,98637.34
2022-08-26T20:29:43.869Z,98642.19
2022-08-26T20:32:11.961Z,98623.38
2022-08-26T20:34:39.612Z,98631.53
2022-08-26T20:37:08.327Z,98631.94
2022-08-26T20:39:35.401Z,98621.00
2022-08-26T20:42:02.668Z,98641.78
2022-08-26T20:44:29.493Z,98645.09
2022-08-26T20:46:56.640Z,98643.19
2022-08-26T20:49:23.469Z,98641.31
2022-08-26T20:51:53.567Z,98620.28
2022-08-26T20:54:27.544Z,98628.66
2022-08-26T20:56:57.808Z,98647.84
2022-08-26T20:59:25.641Z,98618.84
2022-08-26T21:01:53.088Z,98609.81
2022-08-26T21:04:23.133Z,98647.94
2022-08-26T21:06:52.719Z,98642.28
2022-08-26T21:09:22.127Z,98657.94
2022-08-26T21:11:49.890Z,98663.19
2022-08-26T21:14:17.448Z,98642.34
2022-08-26T21:16:46.157Z,98658.09
2022-08-26T21:19:16.042Z,98666.97
2022-08-26T21:21:44.395Z,98654.81
2022-08-26T21:24:12.083Z,98672.25
2022-08-26T21:26:39.032Z,98639.34
2022-08-26T21:29:09.534Z,98659.25
2022-08-26T21:31:41.009Z,98661.19
2022-08-26T21:34:11.969Z,98663.44
2022-08-26T21:36:38.814Z,98665.81
2022-08-26T21:39:10.762Z,98657.50
2022-08-26T21:41:39.857Z,98657.22
2022-08-26T21:44:06.954Z,98641.22
2022-08-26T21:46:37.131Z,98634.19
2022-08-26T21:49:09.874Z,98677.78
2022-08-26T21:51:40.975Z,98675.53
2022-08-26T21:54:11.339Z,98680.25
2022-08-26T21:56:45.060Z,98685.81
2022-08-26T21:59:13.677Z,98667.28
2022-08-26T22:01:40.568Z,98667.00
2022-08-26T22:04:09.051Z,98673.78
2022-08-26T22:06:46.988Z,98675.72
2022-08-26T22:09:18.210Z,98655.53
2022-08-26T22:11:45.724Z,98669.78
2022-08-26T22:14:12.544Z,98670.06
2022-08-26T22:16:39.712Z,98678.38
2022-08-26T22:19:06.813Z,98665.28
2022-08-26T22:21:35.631Z,98673.16
2022-08-26T22:24:04.082Z,98668.84
2022-08-26T22:26:32.956Z,98677.97
2022-08-26T22:29:01.280Z,98659.53
2022-08-26T22:31:37.089Z,98668.13
2022-08-26T22:34:09.070Z,98659.16
2022-08-26T22:36:39.779Z,98683.34
2022-08-26T22:39:12.547Z,98686.97
2022-08-26T22:41:40.080Z,98692.69
2022-08-26T22:44:07.442Z,98667.75
2022-08-26T22:46:36.613Z,98697.25
2022-08-26T22:49:04.706Z,98701.41
2022-08-26T22:51:31.992Z,98690.47
2022-08-26T22:53:59.248Z,98688.97
2022-08-26T22:56:26.367Z,98705.03
2022-08-26T22:58:53.230Z,98709.31
2022-08-26T23:01:20.174Z,98697.25
2022-08-26T23:03:47.197Z,98681.25
2022-08-26T23:06:14.147Z,98711.50
2022-08-26T23:08:41.885Z,98714.84
2022-08-26T23:11:10.971Z,98693.94
2022-08-26T23:13:38.868Z,98711.78
2022-08-26T23:16:09.446Z,98710.13
2022-08-26T23:18:36.780Z,98710.13
2022-08-26T23:21:03.793Z,98684.25
2022-08-26T23:23:31.084Z,98697.25
2022-08-26T23:25:58.337Z,98689.34
2022-08-26T23:28:26.387Z,98692.78
2022-08-26T23:30:53.817Z,98693.91
2022-08-26T23:33:21.129Z,98694.47
2022-08-26T23:35:47.974Z,98689.22
2022-08-26T23:38:16.554Z,98685.06
2022-08-26T23:40:43.594Z,98678.00
2022-08-26T23:43:13.746Z,98684.00
2022-08-26T23:45:40.620Z,98657.78
2022-08-26T23:48:07.685Z,98683.41
2022-08-26T23:50:52.869Z,98674.16
2022-08-26T23:53:22.298Z,98665.13
2022-08-26T23:55:52.030Z,98682.16
2022-08-26T23:58:20.913Z,98689.34
